createdAt,value
2019-03-22T00:01:19.747Z,10.20
2019-03-22T00:03:24.292Z,10.20
2019-03-22T00:05:28.739Z,10.10
2019-03-22T00:07:33.185Z,10.10
2019-03-22T00:09:37.815Z,10.20
2019-03-22T00:11:42.247Z,10.10
2019-03-22T00:13:46.758Z,10.00
2019-03-22T00:15:51.185Z,10.00
2019-03-22T00:17:55.617Z,10.10
2019-03-22T00:20:00.060Z,10.00
2019-03-22T00:22:04.796Z,10.10
2019-03-22T00:24:09.262Z,10.10
2019-03-22T00:26:13.660Z,10.20
2019-03-22T00:28:18.098Z,10.10
2019-03-22T00:30:22.600Z,10.00
2019-03-22T00:32:27.140Z,10.10
2019-03-22T00:34:31.785Z,10.20
2019-03-22T00:36:36.179Z,10.10
2019-03-22T00:38:40.745Z,10.00
2019-03-22T00:40:48.161Z,10.10
2019-03-22T00:42:52.572Z,10.10
2019-03-22T00:44:56.988Z,10.10
2019-03-22T00:47:01.415Z,10.10
2019-03-22T00:49:06.002Z,10.00
2019-03-22T00:51:10.504Z,9.90
2019-03-22T00:53:15.173Z,9.80
2019-03-22T00:55:19.848Z,9.80
2019-03-22T00:57:28.716Z,9.90
2019-03-22T00:59:30.500Z,9.90
2019-03-22T01:01:35.296Z,10.00
2019-03-22T01:03:39.717Z,9.90
2019-03-22T01:05:44.387Z,9.90
2019-03-22T01:07:48.876Z,9.90
2019-03-22T01:09:53.422Z,10.00
2019-03-22T01:11:57.976Z,10.10
2019-03-22T01:14:02.515Z,10.10
2019-03-22T01:16:06.927Z,10.00
2019-03-22T01:18:11.451Z,10.00
2019-03-22T01:20:16.200Z,9.90
2019-03-22T01:22:20.591Z,9.90
2019-03-22T01:24:25.034Z,9.90
2019-03-22T01:26:29.552Z,9.90
2019-03-22T01:28:34.151Z,9.90
2019-03-22T01:30:38.567Z,10.00
2019-03-22T01:32:43.140Z,10.00
2019-03-22T01:34:49.499Z,10.10
2019-03-22T01:36:54.120Z,10.10
2019-03-22T01:38:58.607Z,10.10
2019-03-22T01:41:03.017Z,10.10
2019-03-22T01:43:07.483Z,10.30
2019-03-22T01:45:12.475Z,10.30
2019-03-22T01:47:16.936Z,10.40
2019-03-22T01:49:21.361Z,10.40
2019-03-22T01:51:25.851Z,10.20
2019-03-22T01:53:30.610Z,10.10
2019-03-22T01:55:35.074Z,10.00
2019-03-22T01:57:39.564Z,9.90
2019-03-22T01:59:44.095Z,9.70
2019-03-22T02:01:48.652Z,9.70
2019-03-22T02:03:53.173Z,9.80
2019-03-22T02:05:57.623Z,9.80
2019-03-22T02:08:02.083Z,9.80
2019-03-22T02:10:07.829Z,9.70
2019-03-22T02:12:12.471Z,9.70
2019-03-22T02:14:16.842Z,9.80
2019-03-22T02:16:21.253Z,9.70
2019-03-22T02:18:25.949Z,9.70
2019-03-22T02:20:30.445Z,9.70
2019-03-22T02:22:36.608Z,9.70
2019-03-22T02:24:41.309Z,9.70
2019-03-22T02:26:46.819Z,9.70
2019-03-22T02:28:51.324Z,9.70
2019-03-22T02:30:55.917Z,9.70
2019-03-22T02:33:00.513Z,9.70
2019-03-22T02:35:06.010Z,9.60
2019-03-22T02:37:10.503Z,9.70
2019-03-22T02:39:14.987Z,9.70
2019-03-22T02:41:19.582Z,9.70
2019-03-22T02:43:24.037Z,9.70
2019-03-22T02:45:28.614Z,9.90
2019-03-22T02:47:33.247Z,9.90
2019-03-22T02:49:37.932Z,9.90
2019-03-22T02:51:42.431Z,10.10
2019-03-22T02:53:46.864Z,10.00
2019-03-22T02:55:51.811Z,9.90
2019-03-22T02:57:56.453Z,10.00
2019-03-22T03:00:00.972Z,9.90
2019-03-22T03:02:06.229Z,9.80
2019-03-22T03:04:10.733Z,9.90
2019-03-22T03:06:15.200Z,9.70
2019-03-22T03:08:19.705Z,9.80
2019-03-22T03:10:24.205Z,9.60
2019-03-22T03:12:28.743Z,9.60
2019-03-22T03:14:33.216Z,9.60
2019-03-22T03:16:37.831Z,9.70
2019-03-22T03:18:42.207Z,9.70
2019-03-22T03:20:46.657Z,9.80
2019-03-22T03:22:51.208Z,9.80
2019-03-22T03:24:55.627Z,9.80
2019-03-22T03:27:00.252Z,9.90
2019-03-22T03:29:04.784Z,10.10
2019-03-22T03:31:09.246Z,10.20
2019-03-22T03:33:13.789Z,10.20
2019-03-22T03:35:18.754Z,10.10
2019-03-22T03:37:23.284Z,10.10
2019-03-22T03:39:27.803Z,10.00
2019-03-22T03:41:32.297Z,9.80
2019-03-22T03:43:36.778Z,9.90
2019-03-22T03:45:41.260Z,10.00
2019-03-22T03:47:45.763Z,10.10
2019-03-22T03:49:50.247Z,10.10
2019-03-22T03:51:54.697Z,10.20
2019-03-22T03:53:59.121Z,9.90
2019-03-22T03:56:03.584Z,9.80
2019-03-22T03:58:08.170Z,9.70
2019-03-22T04:00:13.161Z,9.80
2019-03-22T04:02:17.681Z,9.80
2019-03-22T04:04:22.212Z,9.70
2019-03-22T04:06:26.791Z,9.80
2019-03-22T04:08:31.330Z,9.80
2019-03-22T04:10:35.997Z,9.90
2019-03-22T04:12:40.582Z,9.80
2019-03-22T04:14:45.012Z,9.90
2019-03-22T04:16:49.468Z,9.90
2019-03-22T04:18:53.860Z,10.10
2019-03-22T04:20:58.279Z,10.40
2019-03-22T04:23:02.708Z,10.40
2019-03-22T04:25:07.490Z,10.40
2019-03-22T04:27:11.884Z,10.40
2019-03-22T04:29:16.301Z,10.40
2019-03-22T04:31:20.779Z,10.50
2019-03-22T04:33:25.597Z,10.50
2019-03-22T04:35:30.099Z,10.50
2019-03-22T04:37:34.537Z,10.40
2019-03-22T04:39:39.344Z,10.40
2019-03-22T04:41:43.891Z,10.40
2019-03-22T04:43:48.426Z,10.40
2019-03-22T04:45:54.700Z,10.60
2019-03-22T05:16:29.750Z,10.50
2019-03-22T05:18:45.778Z,10.80
2019-03-22T05:32:41.211Z,10.20
2019-03-22T05:37:53.767Z,10.50
2019-03-22T05:40:17.096Z,10.50
2019-03-22T05:42:40.454Z,10.10
2019-03-22T05:45:03.915Z,9.90
2019-03-22T05:47:27.307Z,10.10
2019-03-22T05:49:50.645Z,10.10
2019-03-22T05:52:14.066Z,10.40
2019-03-22T05:54:37.403Z,10.40
2019-03-22T05:57:01.013Z,10.60
2019-03-22T05:59:25.768Z,9.80
2019-03-22T06:02:08.420Z,10.30
2019-03-22T06:04:31.848Z,10.30
2019-03-22T06:06:55.167Z,10.40
2019-03-22T06:09:18.506Z,10.40
2019-03-22T06:11:41.953Z,10.50
2019-03-22T06:16:10.717Z,10.40
2019-03-22T06:18:34.024Z,10.30
2019-03-22T06:20:50.304Z,10.40
2019-03-22T06:23:05.683Z,10.50
2019-03-22T06:25:21.724Z,10.60
2019-03-22T06:27:37.468Z,10.60
2019-03-22T06:29:54.682Z,10.70
2019-03-22T06:32:10.816Z,10.70
2019-03-22T06:34:26.406Z,10.70
2019-03-22T06:36:41.857Z,10.70
2019-03-22T06:38:57.443Z,10.30
2019-03-22T06:41:13.564Z,10.70
2019-03-22T06:43:28.863Z,10.80
2019-03-22T06:45:44.419Z,10.80
2019-03-22T06:47:59.768Z,10.50
2019-03-22T06:50:15.231Z,10.80
2019-03-22T06:52:31.366Z,10.80
2019-03-22T06:54:47.339Z,10.70
2019-03-22T06:57:02.732Z,10.70
2019-03-22T06:59:18.211Z,10.80
2019-03-22T07:01:33.527Z,10.80
2019-03-22T07:03:49.056Z,10.80
2019-03-22T07:06:04.501Z,10.80
2019-03-22T07:08:20.787Z,10.70
2019-03-22T07:10:36.264Z,10.60
2019-03-22T07:12:52.430Z,10.60
2019-03-22T07:15:08.624Z,10.50
2019-03-22T07:17:24.908Z,10.60
2019-03-22T07:19:40.444Z,10.50
2019-03-22T07:21:56.615Z,10.50
2019-03-22T07:24:12.023Z,10.40
2019-03-22T07:26:30.146Z,10.30
2019-03-22T07:28:45.411Z,10.20
2019-03-22T07:31:00.300Z,10.30
2019-03-22T07:33:23.679Z,10.40
2019-03-22T07:35:47.103Z,10.40
2019-03-22T07:38:10.499Z,10.50
2019-03-22T07:40:33.897Z,10.50
2019-03-22T07:42:57.399Z,10.50
2019-03-22T07:45:20.753Z,10.50
2019-03-22T07:47:44.184Z,10.50
2019-03-22T07:50:07.630Z,10.40
2019-03-22T07:52:30.971Z,10.50
2019-03-22T07:57:35.187Z,10.70
2019-03-22T07:59:48.524Z,10.80
2019-03-22T08:02:12.104Z,10.90
2019-03-22T08:04:35.436Z,11.00
2019-03-22T08:07:01.239Z,11.00
2019-03-22T08:11:53.243Z,10.70
2019-03-22T08:14:16.749Z,10.90
2019-03-22T08:16:40.178Z,10.90
2019-03-22T08:18:56.460Z,11.00
2019-03-22T08:21:12.817Z,11.00
2019-03-22T08:23:28.299Z,11.00
2019-03-22T08:25:44.305Z,10.90
2019-03-22T08:27:59.927Z,10.80
2019-03-22T08:30:15.311Z,10.80
2019-03-22T08:32:31.268Z,11.00
2019-03-22T08:34:47.893Z,10.90
2019-03-22T08:37:04.241Z,10.80
2019-03-22T08:39:20.264Z,10.70
2019-03-22T08:41:35.646Z,10.50
2019-03-22T08:43:51.619Z,10.50
2019-03-22T08:46:07.955Z,10.40
2019-03-22T08:48:23.955Z,10.40
2019-03-22T08:50:40.166Z,10.30
2019-03-22T08:52:55.969Z,10.30
2019-03-22T08:55:12.023Z,10.40
2019-03-22T08:57:28.222Z,10.50
2019-03-22T08:59:43.661Z,10.60
2019-03-22T09:01:59.422Z,10.80
2019-03-22T09:04:14.779Z,10.90
2019-03-22T09:06:31.078Z,10.90
2019-03-22T09:08:48.036Z,10.60
2019-03-22T09:11:04.028Z,10.50
2019-03-22T09:13:19.523Z,10.60
2019-03-22T09:15:41.246Z,10.80
2019-03-22T09:17:57.623Z,11.00
2019-03-22T09:20:13.092Z,11.10
2019-03-22T09:22:29.099Z,11.10
2019-03-22T09:24:45.048Z,11.10
2019-03-22T09:27:01.319Z,11.40
2019-03-22T09:29:16.946Z,11.30
2019-03-22T09:31:33.318Z,11.30
2019-03-22T09:33:48.782Z,11.20
2019-03-22T09:36:03.300Z,11.20
2019-03-22T09:38:28.587Z,11.10
2019-03-22T09:40:51.903Z,11.00
2019-03-22T09:43:15.298Z,11.10
2019-03-22T09:45:38.825Z,11.20
2019-03-22T09:48:22.868Z,11.10
2019-03-22T09:50:46.291Z,11.40
2019-03-22T09:53:11.200Z,11.30
2019-03-22T09:55:34.613Z,11.30
2019-03-22T09:57:57.957Z,11.40
2019-03-22T10:00:40.192Z,11.50
2019-03-22T10:03:03.737Z,11.30
2019-03-22T10:05:27.100Z,11.00
2019-03-22T10:07:50.531Z,11.80
2019-03-22T10:12:44.793Z,12.10
2019-03-22T10:15:08.264Z,11.80
2019-03-22T10:17:31.701Z,12.00
2019-03-22T10:19:55.074Z,11.90
2019-03-22T10:22:18.443Z,11.90
2019-03-22T10:24:34.494Z,12.00
2019-03-22T10:26:50.101Z,11.90
2019-03-22T10:29:07.142Z,12.10
2019-03-22T10:31:36.115Z,11.90
2019-03-22T10:33:41.308Z,11.80
2019-03-22T10:35:56.807Z,11.90
2019-03-22T10:38:16.446Z,11.90
2019-03-22T10:40:30.763Z,11.70
2019-03-22T10:42:46.143Z,11.50
2019-03-22T10:45:02.146Z,11.40
2019-03-22T10:47:18.159Z,11.60
2019-03-22T10:49:33.827Z,11.70
2019-03-22T10:51:56.974Z,12.00
2019-03-22T10:54:07.546Z,11.90
2019-03-22T10:56:24.933Z,11.90
2019-03-22T10:58:40.534Z,12.20
2019-03-22T11:00:56.693Z,12.30
2019-03-22T11:03:12.101Z,12.30
2019-03-22T11:05:27.970Z,12.30
2019-03-22T11:07:44.206Z,12.30
2019-03-22T11:09:59.733Z,12.50
2019-03-22T11:12:16.017Z,12.90
2019-03-22T11:14:31.533Z,12.90
2019-03-22T11:16:47.721Z,12.70
2019-03-22T11:19:03.794Z,12.70
2019-03-22T11:21:19.938Z,12.70
2019-03-22T11:23:36.200Z,12.70
2019-03-22T11:25:51.962Z,12.80
2019-03-22T11:28:07.506Z,12.90
2019-03-22T11:30:23.061Z,13.00
2019-03-22T11:32:38.435Z,13.10
2019-03-22T11:34:54.647Z,13.40
2019-03-22T11:37:10.415Z,13.30
2019-03-22T11:39:25.929Z,13.10
2019-03-22T11:41:41.847Z,13.10
2019-03-22T11:43:57.548Z,13.40
2019-03-22T11:46:13.727Z,13.60
2019-03-22T11:48:29.211Z,13.70
2019-03-22T11:50:45.475Z,13.80
2019-03-22T11:53:01.760Z,13.80
2019-03-22T11:55:17.257Z,14.20
2019-03-22T11:57:33.439Z,14.10
2019-03-22T11:59:48.835Z,14.00
2019-03-22T12:02:04.415Z,14.40
2019-03-22T12:04:20.412Z,14.90
2019-03-22T12:06:36.500Z,15.40
2019-03-22T12:08:52.606Z,15.90
2019-03-22T12:11:08.835Z,16.00
2019-03-22T12:13:25.067Z,15.90
2019-03-22T12:15:41.025Z,16.40
2019-03-22T12:17:56.548Z,16.70
2019-03-22T12:20:11.955Z,16.40
2019-03-22T12:22:27.275Z,16.00
2019-03-22T12:24:42.873Z,16.00
2019-03-22T12:26:58.503Z,16.00
2019-03-22T12:29:13.931Z,16.90
2019-03-22T12:31:29.312Z,17.20
2019-03-22T12:33:44.725Z,17.30
2019-03-22T12:36:01.091Z,17.20
2019-03-22T12:38:16.823Z,17.30
2019-03-22T12:40:33.065Z,17.60
2019-03-22T12:42:48.555Z,18.10
2019-03-22T12:45:04.265Z,17.90
2019-03-22T12:47:20.379Z,17.80
2019-03-22T12:49:35.817Z,18.00
2019-03-22T12:51:51.539Z,18.20
2019-03-22T12:54:06.920Z,18.10
2019-03-22T12:56:23.192Z,18.60
2019-03-22T12:58:38.593Z,19.10
2019-03-22T13:00:54.210Z,19.50
2019-03-22T13:03:10.536Z,19.00
2019-03-22T13:05:25.938Z,19.20
2019-03-22T13:07:41.925Z,18.90
2019-03-22T13:09:57.649Z,19.20
2019-03-22T13:12:13.044Z,19.60
2019-03-22T13:14:27.604Z,19.70
2019-03-22T13:16:51.135Z,20.00
2019-03-22T13:19:14.473Z,19.90
2019-03-22T13:24:10.825Z,19.70
2019-03-22T13:26:26.778Z,20.00
2019-03-22T13:28:42.658Z,19.90
2019-03-22T13:30:58.129Z,19.80
2019-03-22T13:33:13.677Z,19.90
2019-03-22T13:35:29.074Z,19.90
2019-03-22T13:37:45.290Z,20.30
2019-03-22T13:40:01.073Z,20.80
2019-03-22T13:42:17.021Z,20.80
2019-03-22T13:44:32.544Z,20.90
2019-03-22T13:46:46.988Z,20.80
2019-03-22T13:49:10.312Z,20.90
2019-03-22T13:54:02.756Z,21.10
2019-03-22T13:56:26.069Z,20.90
2019-03-22T13:58:49.453Z,21.10
2019-03-22T14:01:12.780Z,21.30
2019-03-22T14:03:36.156Z,21.60
2019-03-22T14:05:59.694Z,21.70
2019-03-22T14:08:23.100Z,21.60
2019-03-22T14:10:46.524Z,21.70
2019-03-22T14:13:10.161Z,22.00
2019-03-22T14:15:33.592Z,22.20
2019-03-22T14:17:57.142Z,22.20
2019-03-22T14:20:20.572Z,22.20
2019-03-22T14:22:25.037Z,22.00
2019-03-22T14:24:49.211Z,22.00
2019-03-22T14:27:06.301Z,22.30
2019-03-22T14:29:21.781Z,22.70
2019-03-22T14:31:37.445Z,22.70
2019-03-22T14:33:52.915Z,22.50
2019-03-22T14:36:08.390Z,22.50
2019-03-22T14:38:23.801Z,22.80
2019-03-22T14:40:39.257Z,23.10
2019-03-22T14:42:54.608Z,23.40
2019-03-22T14:45:10.540Z,23.10
2019-03-22T14:47:26.760Z,23.20
2019-03-22T14:49:43.063Z,23.40
2019-03-22T14:51:59.263Z,23.00
2019-03-22T14:54:15.595Z,22.40
2019-03-22T14:56:29.997Z,22.70
2019-03-22T14:58:53.321Z,22.60
2019-03-22T15:01:16.640Z,22.70
2019-03-22T15:03:39.955Z,22.50
2019-03-22T15:06:03.339Z,22.70
2019-03-22T15:08:26.690Z,23.00
2019-03-22T15:10:50.075Z,22.60
2019-03-22T15:16:16.791Z,22.20
2019-03-22T15:18:59.220Z,22.60
2019-03-22T15:21:41.809Z,22.80
2019-03-22T15:24:24.192Z,22.80
2019-03-22T15:27:06.585Z,22.20
2019-03-22T15:29:44.786Z,21.90
2019-03-22T15:32:19.288Z,22.10
2019-03-22T15:34:54.425Z,22.10
2019-03-22T15:40:10.832Z,22.60
2019-03-22T15:42:27.246Z,22.60
2019-03-22T15:44:42.828Z,22.80
2019-03-22T15:46:58.454Z,22.50
2019-03-22T15:49:13.902Z,22.40
2019-03-22T15:51:29.435Z,22.20
2019-03-22T15:53:45.221Z,21.80
2019-03-22T15:56:00.755Z,22.00
2019-03-22T15:58:16.700Z,21.70
2019-03-22T16:00:32.286Z,21.50
2019-03-22T16:02:48.487Z,21.60
2019-03-22T16:05:02.967Z,21.60
2019-03-22T16:07:26.363Z,22.20
2019-03-22T16:09:49.760Z,22.10
2019-03-22T16:12:13.195Z,21.80
2019-03-22T16:14:36.556Z,21.00
2019-03-22T16:16:59.911Z,20.60
2019-03-22T16:19:42.361Z,21.00
2019-03-22T16:22:05.754Z,20.90
2019-03-22T16:24:29.097Z,20.80
2019-03-22T16:29:28.764Z,20.70
2019-03-22T16:31:44.315Z,20.60
2019-03-22T16:33:59.763Z,20.40
2019-03-22T16:36:15.484Z,20.50
2019-03-22T16:38:31.328Z,20.70
2019-03-22T16:40:47.643Z,20.50
2019-03-22T16:43:03.001Z,20.20
2019-03-22T16:45:18.350Z,20.00
2019-03-22T16:47:33.879Z,19.80
2019-03-22T16:49:49.359Z,19.60
2019-03-22T16:52:05.663Z,19.70
2019-03-22T16:54:21.040Z,19.40
2019-03-22T16:56:37.304Z,19.20
2019-03-22T16:58:53.541Z,19.10
2019-03-22T17:01:09.735Z,18.90
2019-03-22T17:03:25.727Z,18.90
2019-03-22T17:05:41.215Z,18.70
2019-03-22T17:07:56.759Z,18.70
2019-03-22T17:10:12.217Z,18.50
2019-03-22T17:12:27.742Z,18.30
2019-03-22T17:14:43.585Z,18.10
2019-03-22T17:16:58.967Z,17.90
2019-03-22T17:19:14.799Z,17.60
2019-03-22T17:21:31.099Z,17.40
2019-03-22T17:23:46.899Z,17.40
2019-03-22T17:26:03.448Z,17.20
2019-03-22T17:28:22.431Z,17.00
2019-03-22T17:30:38.747Z,17.00
2019-03-22T17:32:53.199Z,16.70
2019-03-22T17:35:16.587Z,16.70
2019-03-22T17:37:40.004Z,16.50
2019-03-22T17:40:03.515Z,16.40
2019-03-22T17:42:26.894Z,16.30
2019-03-22T17:49:49.378Z,16.20
2019-03-22T17:52:14.596Z,16.10
2019-03-22T17:54:38.023Z,16.00
2019-03-22T17:57:01.470Z,15.90
2019-03-22T18:01:53.897Z,15.80
2019-03-22T18:04:24.112Z,15.80
2019-03-22T18:06:42.284Z,15.80
2019-03-22T18:09:25.399Z,15.80
2019-03-22T18:11:48.806Z,15.60
2019-03-22T18:14:12.219Z,15.70
2019-03-22T18:16:36.217Z,15.70
2019-03-22T18:21:33.391Z,15.70
2019-03-22T18:23:56.803Z,15.70
2019-03-22T18:26:20.229Z,15.50
2019-03-22T18:31:05.384Z,15.60
2019-03-22T18:33:21.557Z,15.60
2019-03-22T18:35:37.836Z,15.60
2019-03-22T18:37:54.128Z,15.50
2019-03-22T18:40:10.416Z,15.50
2019-03-22T18:42:26.603Z,15.40
2019-03-22T18:44:42.935Z,15.40
2019-03-22T18:46:59.160Z,15.30
2019-03-22T18:49:14.749Z,15.30
2019-03-22T18:51:30.252Z,15.10
2019-03-22T18:53:46.021Z,15.00
2019-03-22T18:56:01.407Z,15.00
2019-03-22T18:58:17.671Z,14.90
2019-03-22T19:00:33.232Z,14.90
2019-03-22T19:02:48.720Z,14.80
2019-03-22T19:05:04.843Z,14.80
2019-03-22T19:07:20.365Z,14.80
2019-03-22T19:09:35.731Z,14.70
2019-03-22T19:11:51.172Z,14.60
2019-03-22T19:14:07.354Z,14.60
2019-03-22T19:16:22.816Z,14.50
2019-03-22T19:18:38.365Z,14.50
2019-03-22T19:20:54.634Z,14.40
2019-03-22T19:23:13.264Z,14.30
2019-03-22T19:25:46.706Z,14.20
2019-03-22T19:27:52.128Z,14.10
2019-03-22T19:30:07.755Z,14.00
2019-03-22T19:32:23.842Z,14.00
2019-03-22T19:34:40.143Z,14.00
2019-03-22T19:36:56.623Z,14.00
2019-03-22T19:39:12.589Z,14.00
2019-03-22T19:41:29.052Z,14.00
2019-03-22T19:43:47.863Z,14.00
2019-03-22T19:46:05.345Z,13.80
2019-03-22T19:48:21.041Z,13.80
2019-03-22T19:50:37.426Z,13.70
2019-03-22T19:52:52.335Z,13.80
2019-03-22T19:55:15.744Z,13.80
2019-03-22T19:57:39.297Z,13.70
2019-03-22T20:00:03.717Z,13.70
2019-03-22T20:02:27.439Z,13.60
2019-03-22T20:05:05.668Z,13.00
2019-03-22T20:07:26.857Z,13.60
2019-03-22T20:09:45.537Z,13.50
2019-03-22T20:12:12.206Z,13.50
2019-03-22T20:14:35.795Z,13.50
2019-03-22T20:16:59.581Z,13.40
2019-03-22T20:19:23.207Z,13.40
2019-03-22T20:21:46.661Z,13.40
2019-03-22T20:26:53.047Z,13.50
2019-03-22T20:29:16.532Z,13.50
2019-03-22T20:31:40.199Z,13.30
2019-03-22T20:33:56.387Z,13.30
2019-03-22T20:36:11.968Z,13.40
2019-03-22T20:38:28.051Z,13.40
2019-03-22T20:40:43.991Z,13.40
2019-03-22T20:43:01.742Z,13.20
2019-03-22T20:45:24.076Z,13.20
2019-03-22T20:47:35.222Z,13.30
2019-03-22T20:49:51.577Z,13.20
2019-03-22T20:52:07.401Z,13.30
2019-03-22T20:54:23.458Z,12.80
2019-03-22T20:56:39.562Z,13.20
2019-03-22T20:58:55.835Z,13.20
2019-03-22T21:01:12.235Z,13.10
2019-03-22T21:03:28.177Z,13.10
2019-03-22T21:05:47.163Z,13.10
2019-03-22T21:08:03.636Z,13.10
2019-03-22T21:10:19.672Z,13.00
2019-03-22T21:12:35.488Z,13.00
2019-03-22T21:14:51.633Z,12.90
2019-03-22T21:17:07.437Z,13.10
2019-03-22T21:19:23.746Z,12.90
2019-03-22T21:21:39.688Z,12.90
2019-03-22T21:23:54.159Z,12.80
2019-03-22T21:26:17.463Z,12.80
2019-03-22T21:28:41.188Z,12.80
2019-03-22T21:31:04.768Z,12.70
2019-03-22T21:33:20.589Z,12.00
2019-03-22T21:35:37.780Z,11.80
2019-03-22T21:37:55.792Z,12.50
2019-03-22T21:40:11.183Z,12.50
2019-03-22T21:42:27.919Z,12.40
2019-03-22T21:44:43.537Z,12.40
2019-03-22T21:46:58.913Z,12.40
2019-03-22T21:49:14.540Z,12.40
2019-03-22T21:51:30.381Z,12.10
2019-03-22T21:53:46.224Z,12.40
2019-03-22T21:56:01.729Z,12.30
2019-03-22T21:58:17.420Z,12.30
2019-03-22T22:00:33.276Z,12.30
2019-03-22T22:02:48.649Z,12.30
2019-03-22T22:05:04.967Z,12.30
2019-03-22T22:07:20.562Z,12.30
2019-03-22T22:09:36.768Z,12.20
2019-03-22T22:11:52.970Z,12.20
2019-03-22T22:14:09.076Z,12.20
2019-03-22T22:16:25.204Z,12.10
2019-03-22T22:18:41.252Z,12.10
2019-03-22T22:20:57.421Z,12.20
2019-03-22T22:23:13.559Z,12.10
2019-03-22T22:25:29.440Z,12.10
2019-03-22T22:27:44.784Z,12.00
2019-03-22T22:30:01.080Z,12.00
2019-03-22T22:32:16.806Z,12.00
2019-03-22T22:34:32.894Z,12.00
2019-03-22T22:36:49.075Z,11.90
2019-03-22T22:39:05.274Z,12.00
2019-03-22T22:41:19.850Z,11.50
2019-03-22T22:43:43.252Z,12.00
2019-03-22T22:46:06.670Z,12.00
2019-03-22T22:48:29.999Z,12.00
2019-03-22T22:53:41.575Z,11.90
2019-03-22T22:56:04.927Z,11.90
2019-03-22T22:58:28.244Z,11.70
2019-03-22T23:06:09.306Z,11.70
2019-03-22T23:08:28.923Z,11.70
2019-03-22T23:10:52.326Z,11.70
2019-03-22T23:13:15.654Z,11.70
2019-03-22T23:15:39.049Z,11.80
2019-03-22T23:20:31.952Z,11.80
2019-03-22T23:22:55.327Z,11.70
2019-03-22T23:25:18.686Z,11.60
2019-03-22T23:30:23.188Z,11.60
2019-03-22T23:32:36.692Z,11.60
2019-03-22T23:34:58.915Z,11.60
2019-03-22T23:37:09.680Z,11.60
2019-03-22T23:39:25.624Z,11.50
2019-03-22T23:41:41.919Z,11.50
2019-03-22T23:43:58.516Z,11.40
2019-03-22T23:46:14.425Z,11.40
2019-03-22T23:48:29.799Z,11.50
2019-03-22T23:50:45.575Z,11.40
2019-03-22T23:53:01.639Z,11.20
2019-03-22T23:55:17.083Z,11.40
2019-03-22T23:57:32.623Z,11.40
2019-03-22T23:59:48.657Z,11.30
